Time;durP1;ratioP1;P1;durP2;ratioP2;P2;SDS_P1;SDS_P2;PMS_P1;PMS_P2;Temp;Humidity;BMP_temperature;BMP_pressure;BME280_temperature;BME280_humidity;BME280_pressure;Samples;Min_cycle;Max_cycle;Signal;HPM_P1;HPM_P2
2021/12/22 00:01:04;;;;;;;24.73;12.38;;;-3.40;99.90;;;;;;5059141;28;20051;-80
2021/12/22 00:03:30;;;;;;;23.25;12.15;;;-3.40;99.90;;;;;;5077823;28;20392;-81
2021/12/22 00:05:56;;;;;;;24.65;12.85;;;-3.40;99.90;;;;;;5076914;28;20021;-80
2021/12/22 00:08:22;;;;;;;22.50;12.10;;;-3.40;99.90;;;;;;5076732;28;20541;-81
2021/12/22 00:10:49;;;;;;;19.65;11.45;;;-3.40;99.90;;;;;;5077424;28;20074;-81
2021/12/22 00:13:30;;;;;;;22.50;11.93;;;-3.50;99.90;;;;;;5078142;28;20116;-81
2021/12/22 00:15:57;;;;;;;22.58;12.15;;;-3.60;99.90;;;;;;5077446;28;20099;-80
2021/12/22 00:18:22;;;;;;;20.58;11.98;;;-3.50;99.90;;;;;;5078141;28;20064;-80
2021/12/22 00:20:57;;;;;;;23.67;12.13;;;-3.40;99.90;;;;;;5059363;28;20024;-81
2021/12/22 00:23:23;;;;;;;28.92;12.50;;;-3.50;99.90;;;;;;5058929;28;20052;-81
2021/12/22 00:25:49;;;;;;;25.20;12.15;;;-3.70;99.90;;;;;;5076392;28;20063;-80
2021/12/22 00:28:15;;;;;;;23.45;12.30;;;-3.60;99.90;;;;;;5077070;28;20044;-81
2021/12/22 00:30:41;;;;;;;21.75;11.63;;;-3.70;99.90;;;;;;5076497;28;20488;-80
2021/12/22 00:33:09;;;;;;;21.23;11.32;;;-3.60;99.90;;;;;;5076748;28;20496;-80
2021/12/22 00:35:41;;;;;;;25.08;13.57;;;-3.70;99.90;;;;;;5076995;28;20531;-80
2021/12/22 00:38:21;;;;;;;20.20;11.98;;;-3.70;99.90;;;;;;5058412;28;20025;-81
2021/12/22 00:41:02;;;;;;;20.52;12.68;;;-3.70;99.90;;;;;;5076202;28;20025;-81
2021/12/22 00:43:27;;;;;;;19.08;11.40;;;-3.80;99.90;;;;;;5076149;28;20044;-81
2021/12/22 00:45:56;;;;;;;20.77;11.00;;;-3.60;99.90;;;;;;5075905;28;20115;-80
2021/12/22 00:49:08;;;;;;;22.08;11.60;;;-3.60;99.90;;;;;;5075828;28;20031;-81
2021/12/22 00:51:34;;;;;;;22.67;11.23;;;-3.60;99.90;;;;;;5057581;28;20443;-81
2021/12/22 00:54:14;;;;;;;16.42;10.52;;;-3.60;99.90;;;;;;5075692;28;20039;-80
2021/12/22 00:56:39;;;;;;;22.33;11.70;;;-3.70;99.90;;;;;;5075768;28;20050;-80
2021/12/22 00:59:05;;;;;;;20.02;12.18;;;-3.80;99.90;;;;;;5076218;28;20020;-81
2021/12/22 01:01:31;;;;;;;20.40;11.02;;;-3.70;99.90;;;;;;5057573;28;20032;-80
2021/12/22 01:03:56;;;;;;;19.30;11.65;;;-3.70;99.90;;;;;;5075561;28;20099;-80
2021/12/22 01:06:23;;;;;;;20.27;12.32;;;-3.70;99.90;;;;;;5075467;28;20353;-80
2021/12/22 01:08:49;;;;;;;22.20;12.43;;;-3.60;99.90;;;;;;5075254;28;20086;-80
2021/12/22 01:11:15;;;;;;;25.55;13.70;;;-3.70;99.90;;;;;;5075384;28;20024;-81
2021/12/22 01:13:40;;;;;;;27.35;12.45;;;-3.70;99.90;;;;;;5075424;28;20032;-81
2021/12/22 01:16:06;;;;;;;22.73;12.27;;;-3.60;99.90;;;;;;5075936;28;20027;-80
2021/12/22 01:18:34;;;;;;;20.05;10.93;;;-3.60;99.90;;;;;;5076152;28;20016;-80
2021/12/22 01:23:26;;;;;;;21.25;12.02;;;-3.60;99.90;;;;;;5074820;28;20052;-81
2021/12/22 01:25:52;;;;;;;22.23;11.80;;;-3.50;99.90;;;;;;5075099;28;20021;-81
2021/12/22 01:28:22;;;;;;;21.00;11.93;;;-3.60;99.90;;;;;;5056978;28;20373;-80
2021/12/22 01:30:49;;;;;;;20.17;11.38;;;-3.60;99.90;;;;;;5075423;28;20013;-80
2021/12/22 01:33:16;;;;;;;19.45;11.50;;;-3.70;99.90;;;;;;5075055;28;20112;-80
2021/12/22 01:35:42;;;;;;;21.95;11.98;;;-3.70;99.90;;;;;;5056958;28;20024;-80
2021/12/22 01:38:08;;;;;;;20.55;11.45;;;-3.70;99.90;;;;;;5074604;28;20021;-81
2021/12/22 01:40:38;;;;;;;21.02;11.45;;;-3.70;99.90;;;;;;5074208;28;20025;-80
2021/12/22 01:43:05;;;;;;;21.13;11.50;;;-3.70;99.90;;;;;;5074244;28;20025;-80
2021/12/22 01:45:56;;;;;;;21.05;11.80;;;-3.60;99.90;;;;;;5074630;28;20024;-80
2021/12/22 01:51:48;;;;;;;24.75;10.75;;;-3.70;99.90;;;;;;5074206;28;19916;-81
2021/12/22 01:54:29;;;;;;;19.55;10.80;;;-3.70;99.90;;;;;;5073972;28;20032;-80
2021/12/22 01:57:43;;;;;;;20.65;11.38;;;-3.80;99.90;;;;;;5074108;28;20021;-80
2021/12/22 02:00:09;;;;;;;22.60;10.90;;;-3.70;99.90;;;;;;5074070;28;20032;-80
2021/12/22 02:03:31;;;;;;;22.60;12.27;;;-3.60;99.90;;;;;;5074090;28;20468;-80
2021/12/22 02:05:57;;;;;;;22.50;11.02;;;-3.60;99.90;;;;;;5073859;28;20476;-81
2021/12/22 02:08:22;;;;;;;20.48;11.55;;;-3.70;99.90;;;;;;5073649;28;20074;-80
2021/12/22 02:10:48;;;;;;;22.17;11.65;;;-3.70;99.90;;;;;;5073962;28;20032;-80
2021/12/22 02:13:20;;;;;;;19.13;10.70;;;-3.60;99.90;;;;;;5074015;28;20017;-81
2021/12/22 02:15:47;;;;;;;19.50;11.90;;;-3.70;99.90;;;;;;5074309;28;20021;-81
2021/12/22 02:18:17;;;;;;;22.35;11.77;;;-3.70;99.90;;;;;;5073733;28;20048;-80
2021/12/22 02:20:43;;;;;;;19.25;10.85;;;-3.70;99.90;;;;;;5073847;28;20021;-80
2021/12/22 02:23:09;;;;;;;21.92;11.52;;;-3.60;99.90;;;;;;5073577;28;20020;-81
2021/12/22 02:25:43;;;;;;;24.63;11.32;;;-3.70;99.90;;;;;;5072891;28;20082;-80
2021/12/22 02:28:16;;;;;;;18.50;11.00;;;-3.70;99.90;;;;;;5073730;28;20078;-80
2021/12/22 02:31:16;;;;;;;22.42;11.73;;;-3.70;99.90;;;;;;5073841;28;20611;-81
2021/12/22 02:33:46;;;;;;;22.85;11.70;;;-3.80;99.90;;;;;;5073772;28;20468;-81
2021/12/22 02:36:23;;;;;;;23.13;11.50;;;-3.70;99.90;;;;;;5055280;28;20472;-81
2021/12/22 02:38:58;;;;;;;18.92;11.40;;;-3.80;99.90;;;;;;5073659;28;20074;-81
2021/12/22 02:41:43;;;;;;;19.27;10.95;;;-3.80;99.90;;;;;;5073005;28;20029;-80
2021/12/22 02:44:11;;;;;;;20.40;10.32;;;-3.90;99.90;;;;;;5072784;28;20077;-80
2021/12/22 02:46:50;;;;;;;18.30;10.65;;;-3.90;99.90;;;;;;5055052;28;20029;-81
2021/12/22 02:49:29;;;;;;;20.20;11.33;;;-3.90;99.90;;;;;;5073114;28;20024;-80
2021/12/22 02:52:04;;;;;;;21.55;11.57;;;-3.90;99.90;;;;;;5072925;28;20265;-80
2021/12/22 02:55:06;;;;;;;20.05;12.23;;;-3.80;99.90;;;;;;5073056;28;20547;-80
2021/12/22 02:57:43;;;;;;;19.95;10.52;;;-3.80;99.90;;;;;;5073046;28;20105;-80
2021/12/22 03:05:22;;;;;;;22.15;10.45;;;-4.00;99.90;;;;;;5073041;28;20024;-80
2021/12/22 03:07:48;;;;;;;18.08;10.70;;;-3.90;99.90;;;;;;5072863;28;20361;-81
2021/12/22 03:10:17;;;;;;;19.42;10.93;;;-3.90;99.90;;;;;;5073011;28;20480;-81
2021/12/22 03:12:45;;;;;;;17.55;10.50;;;-3.90;99.90;;;;;;5073429;28;20016;-81
2021/12/22 03:15:11;;;;;;;22.27;11.93;;;-3.90;99.90;;;;;;5073020;28;20477;-81
2021/12/22 03:17:38;;;;;;;22.17;11.00;;;-4.00;99.90;;;;;;5072915;28;20021;-80
2021/12/22 03:20:06;;;;;;;18.27;10.63;;;-4.00;99.90;;;;;;5072853;28;20023;-80
2021/12/22 03:22:32;;;;;;;20.60;10.88;;;-4.00;99.90;;;;;;5072815;28;20523;-81
2021/12/22 03:24:57;;;;;;;18.65;10.63;;;-4.10;99.90;;;;;;5072509;28;20024;-81
2021/12/22 03:27:24;;;;;;;19.02;10.48;;;-4.10;99.90;;;;;;5072688;28;20025;-80
2021/12/22 03:29:51;;;;;;;19.70;11.18;;;-4.00;99.90;;;;;;5072708;28;20029;-81
2021/12/22 03:32:17;;;;;;;16.15;10.05;;;-4.00;99.90;;;;;;5072869;28;20025;-81
2021/12/22 03:34:43;;;;;;;20.90;10.82;;;-4.00;99.90;;;;;;5072914;28;20369;-81
2021/12/22 03:37:10;;;;;;;18.90;10.68;;;-4.10;99.90;;;;;;5075004;28;20016;-80
2021/12/22 03:39:47;;;;;;;23.50;10.77;;;-4.20;99.90;;;;;;5076059;28;20573;-80
2021/12/22 03:42:14;;;;;;;21.33;11.60;;;-4.10;99.90;;;;;;5076266;28;20028;-80
2021/12/22 03:44:40;;;;;;;21.63;11.23;;;-4.00;99.90;;;;;;5076515;28;20127;-81
2021/12/22 03:47:06;;;;;;;20.10;10.95;;;-4.00;99.90;;;;;;5058174;28;20094;-81
2021/12/22 03:49:32;;;;;;;21.92;10.75;;;-4.00;99.90;;;;;;5075940;28;20031;-81
2021/12/22 03:55:26;;;;;;;21.55;11.13;;;-4.10;99.90;;;;;;5070925;28;20020;-81
2021/12/22 03:57:52;;;;;;;20.52;11.60;;;-4.00;99.90;;;;;;5075981;28;20040;-81
2021/12/22 04:00:18;;;;;;;21.70;11.13;;;-4.00;99.90;;;;;;5075972;28;20055;-80
2021/12/22 04:02:43;;;;;;;26.85;11.80;;;-4.10;99.90;;;;;;5075827;28;20024;-81
2021/12/22 04:05:10;;;;;;;21.90;11.15;;;-4.00;99.90;;;;;;5075907;28;20468;-81
2021/12/22 04:11:05;;;;;;;23.00;10.75;;;-3.90;99.90;;;;;;5075633;28;20059;-80
2021/12/22 04:13:30;;;;;;;23.85;11.60;;;-3.90;99.90;;;;;;5075972;28;20028;-81
2021/12/22 04:15:56;;;;;;;22.33;11.65;;;-3.80;99.90;;;;;;5075633;28;20100;-81
2021/12/22 04:18:21;;;;;;;24.17;12.00;;;-3.90;99.90;;;;;;5075760;28;20035;-80
2021/12/22 04:20:47;;;;;;;22.95;11.60;;;-3.80;99.90;;;;;;5075808;28;20090;-80
2021/12/22 04:23:13;;;;;;;21.23;12.07;;;-3.80;99.90;;;;;;5095721;28;20469;-81
2021/12/22 04:25:39;;;;;;;18.80;10.90;;;-3.80;99.90;;;;;;5095462;28;20027;-81
2021/12/22 04:28:09;;;;;;;22.70;11.63;;;-3.90;99.90;;;;;;5095626;28;20085;-81
2021/12/22 04:30:41;;;;;;;20.70;11.45;;;-3.90;99.90;;;;;;5095860;28;20027;-80
2021/12/22 04:33:07;;;;;;;20.17;11.15;;;-3.90;99.90;;;;;;5095661;28;20020;-80
2021/12/22 04:35:33;;;;;;;18.70;10.93;;;-3.90;99.90;;;;;;5095594;28;20047;-80
2021/12/22 04:37:59;;;;;;;23.45;11.48;;;-3.90;99.90;;;;;;5095388;28;20024;-80
2021/12/22 04:40:25;;;;;;;21.52;11.45;;;-3.90;99.90;;;;;;5095254;28;20024;-80
2021/12/22 04:42:51;;;;;;;21.27;11.65;;;-3.80;99.90;;;;;;5095119;28;20020;-80
2021/12/22 04:45:22;;;;;;;22.15;11.23;;;-3.90;99.90;;;;;;5095309;28;20020;-80
2021/12/22 04:47:51;;;;;;;27.40;12.70;;;-3.90;99.90;;;;;;5094764;28;20020;-81
2021/12/22 04:50:18;;;;;;;39.65;13.25;;;-3.90;99.90;;;;;;5095224;28;20472;-80
2021/12/22 04:52:53;;;;;;;21.42;11.18;;;-3.90;99.90;;;;;;5095373;28;20020;-80
2021/12/22 04:55:19;;;;;;;24.02;11.32;;;-3.90;99.90;;;;;;5095537;28;20111;-80
2021/12/22 04:57:45;;;;;;;22.95;11.00;;;-3.80;99.90;;;;;;5095445;28;20043;-80
2021/12/22 05:00:13;;;;;;;26.10;11.50;;;-3.80;99.90;;;;;;5077125;28;20048;-80
2021/12/22 05:03:06;;;;;;;21.52;10.73;;;-3.90;99.90;;;;;;5094976;28;20058;-80
2021/12/22 05:05:32;;;;;;;24.35;11.05;;;-3.80;99.90;;;;;;5095186;28;20032;-80
2021/12/22 05:07:58;;;;;;;19.42;10.05;;;-3.90;99.90;;;;;;5094637;28;20560;-80
2021/12/22 05:10:53;;;;;;;23.40;10.90;;;-3.90;99.90;;;;;;5076609;28;20032;-80
2021/12/22 05:13:19;;;;;;;20.92;10.45;;;-3.90;99.90;;;;;;5095043;28;20129;-80
2021/12/22 05:15:44;;;;;;;22.77;10.80;;;-3.80;99.90;;;;;;5094966;28;20491;-80
2021/12/22 05:20:44;;;;;;;19.80;10.65;;;-3.80;99.90;;;;;;5095409;28;20455;-80
2021/12/22 05:23:22;;;;;;;23.90;11.27;;;-3.90;99.90;;;;;;5094743;28;20077;-80
2021/12/22 05:25:48;;;;;;;27.27;12.07;;;-3.90;99.90;;;;;;5094499;28;20031;-81
2021/12/22 05:28:14;;;;;;;24.67;10.68;;;-3.80;99.90;;;;;;5094498;28;20673;-80
2021/12/22 05:30:39;;;;;;;19.90;10.38;;;-3.80;99.90;;;;;;5094425;28;20606;-80
2021/12/22 05:33:05;;;;;;;22.73;11.32;;;-3.80;99.90;;;;;;5094681;28;20028;-80
2021/12/22 05:35:48;;;;;;;22.40;11.05;;;-3.80;99.90;;;;;;5094625;28;20099;-80
2021/12/22 05:38:49;;;;;;;20.42;10.88;;;-3.90;99.90;;;;;;5094464;28;20039;-80
2021/12/22 05:41:15;;;;;;;22.70;11.02;;;-3.90;99.90;;;;;;5094232;28;20062;-81
2021/12/22 05:43:40;;;;;;;27.33;11.35;;;-3.90;99.90;;;;;;5094178;28;20098;-80
2021/12/22 05:46:06;;;;;;;21.58;10.65;;;-3.80;99.90;;;;;;5076175;28;20138;-80
2021/12/22 05:48:32;;;;;;;22.38;10.55;;;-3.80;99.90;;;;;;5093943;28;20047;-80
2021/12/22 05:51:07;;;;;;;21.13;11.00;;;-3.80;99.90;;;;;;5093971;28;20032;-80
2021/12/22 05:53:33;;;;;;;24.05;10.80;;;-3.80;99.90;;;;;;5094132;28;20035;-81
2021/12/22 05:55:59;;;;;;;23.10;11.77;;;-3.90;99.90;;;;;;5093937;28;20020;-80
2021/12/22 05:58:25;;;;;;;22.98;11.13;;;-3.80;99.90;;;;;;5093705;28;20012;-80
2021/12/22 06:00:51;;;;;;;22.00;11.63;;;-3.90;99.90;;;;;;5093760;28;20032;-80
2021/12/22 06:06:39;;;;;;;22.63;10.93;;;-3.80;99.90;;;;;;5073762;28;20398;-80
2021/12/22 06:09:06;;;;;;;22.73;11.05;;;-3.80;99.90;;;;;;5073679;28;20021;-80
2021/12/22 06:11:31;;;;;;;25.52;12.07;;;-3.90;99.90;;;;;;5073845;28;20538;-80
2021/12/22 06:13:57;;;;;;;20.60;11.00;;;-3.90;99.90;;;;;;5073724;28;20053;-80
2021/12/22 06:16:23;;;;;;;20.92;11.20;;;-4.00;99.90;;;;;;5073558;28;20023;-80
2021/12/22 06:18:55;;;;;;;24.38;11.68;;;-4.00;99.90;;;;;;5073879;28;20103;-80
2021/12/22 06:21:20;;;;;;;21.63;11.57;;;-3.90;99.90;;;;;;5074155;28;20035;-80
2021/12/22 06:23:46;;;;;;;22.33;11.65;;;-4.00;99.90;;;;;;5073571;28;20021;-80
2021/12/22 06:26:12;;;;;;;22.52;10.60;;;-4.00;99.90;;;;;;5075279;28;20016;-81
2021/12/22 06:28:43;;;;;;;25.35;12.07;;;-4.00;99.90;;;;;;5072996;28;20392;-79
2021/12/22 06:31:08;;;;;;;;;;;-4.00;99.90;;;;;;5088617;28;20028;-80
2021/12/22 06:33:34;;;;;;;21.85;10.77;;;-3.90;99.90;;;;;;5093668;28;19914;-81
2021/12/22 06:36:10;;;;;;;19.20;10.43;;;-4.00;99.90;;;;;;5086948;28;20052;-81
2021/12/22 06:38:36;;;;;;;23.63;11.77;;;-4.00;99.90;;;;;;5089216;28;20035;-80
2021/12/22 06:41:03;;;;;;;20.13;11.00;;;-4.00;99.90;;;;;;5084156;28;20017;-81
2021/12/22 06:43:29;;;;;;;23.52;11.73;;;-4.00;99.90;;;;;;5065915;28;20048;-80
2021/12/22 06:45:55;;;;;;;19.67;10.63;;;-4.00;99.90;;;;;;5064258;28;20163;-80
2021/12/22 06:48:20;;;;;;;25.42;11.65;;;-4.10;99.90;;;;;;5075778;28;20495;-81
2021/12/22 06:50:46;;;;;;;25.95;12.25;;;-4.00;99.90;;;;;;5084452;28;20021;-81
2021/12/22 06:53:11;;;;;;;20.40;11.43;;;-4.10;99.90;;;;;;5060269;28;20028;-81
2021/12/22 06:55:37;;;;;;;19.85;11.68;;;-4.00;99.90;;;;;;5088665;28;20396;-81
2021/12/22 06:58:03;;;;;;;23.95;11.50;;;-4.00;99.90;;;;;;5082871;28;20020;-80
2021/12/22 07:00:29;;;;;;;23.10;11.60;;;-4.00;99.90;;;;;;5078219;28;20028;-81
2021/12/22 07:02:57;;;;;;;22.88;11.30;;;-4.00;99.90;;;;;;5076598;28;20024;-80
2021/12/22 07:05:23;;;;;;;27.55;12.15;;;-4.10;99.90;;;;;;5091463;28;20020;-80
2021/12/22 07:07:48;;;;;;;25.58;12.60;;;-4.00;99.90;;;;;;5091126;28;20051;-81
2021/12/22 07:10:14;;;;;;;26.98;11.85;;;-4.00;99.90;;;;;;5091395;28;20521;-81
2021/12/22 07:12:42;;;;;;;25.15;11.80;;;-4.00;99.90;;;;;;5076236;28;20028;-80
2021/12/22 07:15:10;;;;;;;23.95;11.95;;;-3.80;99.90;;;;;;5097200;28;20016;-80
2021/12/22 07:17:36;;;;;;;24.77;11.55;;;-4.00;99.90;;;;;;5096077;28;20077;-80
2021/12/22 07:20:05;;;;;;;25.10;12.30;;;-4.00;99.90;;;;;;5096425;28;20054;-80
2021/12/22 07:22:31;;;;;;;23.88;11.82;;;-4.00;99.90;;;;;;5096573;28;20016;-80
2021/12/22 07:24:57;;;;;;;23.67;11.70;;;-3.90;99.90;;;;;;5095387;28;20077;-80
2021/12/22 07:27:23;;;;;;;24.67;11.77;;;-4.00;99.90;;;;;;5095689;28;20020;-80
2021/12/22 07:29:48;;;;;;;23.15;11.77;;;-4.00;99.90;;;;;;5095671;28;20117;-80
2021/12/22 07:32:14;;;;;;;25.38;12.68;;;-3.90;99.90;;;;;;5095863;28;20024;-80
2021/12/22 07:34:46;;;;;;;22.05;11.82;;;-3.90;99.90;;;;;;5095552;28;20024;-79
2021/12/22 07:37:21;;;;;;;25.40;12.35;;;-3.80;99.90;;;;;;5095260;28;20021;-80
2021/12/22 07:39:47;;;;;;;27.05;12.32;;;-3.90;99.90;;;;;;5095278;28;20106;-80
2021/12/22 07:42:13;;;;;;;27.52;11.80;;;-3.80;99.90;;;;;;5096136;28;20023;-80
2021/12/22 07:44:39;;;;;;;26.90;12.20;;;-3.80;99.90;;;;;;5096284;28;20044;-80
2021/12/22 07:47:05;;;;;;;27.17;12.00;;;-3.90;99.90;;;;;;5077282;28;20123;-80
2021/12/22 07:49:31;;;;;;;26.60;12.75;;;-4.00;99.90;;;;;;5094985;28;20051;-78
2021/12/22 07:51:56;;;;;;;28.30;13.38;;;-3.90;99.90;;;;;;5093531;28;20024;-79
2021/12/22 07:54:22;;;;;;;25.30;11.10;;;-3.90;99.90;;;;;;5075736;28;20043;-78
2021/12/22 07:56:47;;;;;;;23.02;11.80;;;-3.90;99.90;;;;;;5093904;28;20028;-78
2021/12/22 07:59:13;;;;;;;29.65;12.00;;;-3.90;99.90;;;;;;5093718;28;20056;-78
2021/12/22 08:01:39;;;;;;;30.92;12.60;;;-3.80;99.90;;;;;;5075223;28;20497;-78
2021/12/22 08:04:04;;;;;;;23.30;10.77;;;-3.40;99.90;;;;;;5093411;28;20035;-78
2021/12/22 08:06:30;;;;;;;25.92;11.88;;;-3.40;99.90;;;;;;5093867;28;20036;-79
2021/12/22 08:08:55;;;;;;;24.48;12.95;;;-3.30;99.90;;;;;;5093777;28;20518;-78
2021/12/22 08:11:21;;;;;;;30.13;13.50;;;-3.30;99.90;;;;;;5086844;28;20048;-79
2021/12/22 08:13:46;;;;;;;28.75;13.55;;;-3.20;99.90;;;;;;5067737;28;20514;-79
2021/12/22 08:16:12;;;;;;;27.58;13.15;;;-3.10;99.90;;;;;;5085064;28;20036;-79
2021/12/22 08:18:38;;;;;;;25.33;12.63;;;-3.20;99.90;;;;;;5084811;28;20018;-79
2021/12/22 08:21:03;;;;;;;24.60;12.75;;;-3.20;99.90;;;;;;5085500;28;20031;-80
2021/12/22 08:23:29;;;;;;;26.85;12.98;;;-3.20;99.90;;;;;;5081496;28;20072;-79
2021/12/22 08:25:55;;;;;;;26.15;12.90;;;-3.30;99.90;;;;;;5084674;28;20027;-79
2021/12/22 08:28:20;;;;;;;27.95;13.20;;;-3.20;99.90;;;;;;5084074;28;20503;-79
2021/12/22 08:30:46;;;;;;;24.73;11.70;;;-3.10;99.90;;;;;;5088954;28;20410;-80
2021/12/22 08:33:21;;;;;;;22.15;12.00;;;-3.10;99.90;;;;;;5084283;28;20027;-79
2021/12/22 08:38:51;;;;;;;33.15;13.07;;;-2.90;99.90;;;;;;5078943;28;20039;-79
2021/12/22 08:41:32;;;;;;;25.63;11.57;;;-2.90;99.90;;;;;;5084861;28;20032;-79
2021/12/22 08:44:00;;;;;;;;;;;-2.80;99.90;;;;;;5073015;28;20048;-79
2021/12/22 08:46:27;;;;;;;28.88;12.82;;;-2.80;99.90;;;;;;5075568;28;19904;-79
2021/12/22 08:48:52;;;;;;;36.83;15.77;;;-2.80;99.90;;;;;;5074469;28;20028;-79
2021/12/22 08:51:18;;;;;;;42.05;18.35;;;-2.80;99.90;;;;;;5077535;28;20070;-79
2021/12/22 08:53:44;;;;;;;39.38;17.38;;;-2.70;99.90;;;;;;5060897;28;20434;-79
2021/12/22 08:56:09;;;;;;;48.42;20.23;;;-2.70;99.90;;;;;;5074811;28;20032;-78
2021/12/22 08:58:35;;;;;;;60.83;24.05;;;-2.50;99.90;;;;;;5079428;28;20103;-78
2021/12/22 09:01:03;;;;;;;54.90;22.23;;;-2.40;99.90;;;;;;5080183;28;20033;-79
2021/12/22 09:03:28;;;;;;;57.72;24.40;;;-2.20;99.90;;;;;;5076278;28;20059;-79
2021/12/22 09:05:54;;;;;;;51.95;23.52;;;-2.10;99.90;;;;;;5089238;28;20043;-79
2021/12/22 09:08:19;;;;;;;50.03;22.55;;;-2.00;99.90;;;;;;5076639;28;20127;-79
2021/12/22 09:10:45;;;;;;;34.75;17.83;;;-1.90;99.90;;;;;;5058796;28;20031;-79
2021/12/22 09:13:13;;;;;;;35.70;16.38;;;-1.90;99.90;;;;;;5075198;28;20032;-80
2021/12/22 09:15:39;;;;;;;32.03;15.48;;;-1.70;99.90;;;;;;5056781;28;20073;-80
2021/12/22 09:18:05;;;;;;;29.92;14.18;;;-1.80;99.90;;;;;;5074909;28;20118;-79
2021/12/22 09:20:31;;;;;;;27.75;13.45;;;-1.70;99.90;;;;;;5071608;28;20056;-79
2021/12/22 09:22:57;;;;;;;29.63;13.82;;;-1.60;99.90;;;;;;5071931;28;20052;-79
2021/12/22 09:25:22;;;;;;;30.27;14.13;;;-1.50;99.90;;;;;;5078535;28;20036;-80
2021/12/22 09:27:48;;;;;;;26.67;12.93;;;-1.40;99.90;;;;;;5091502;28;20020;-80
2021/12/22 09:30:14;;;;;;;27.08;12.30;;;-1.40;99.90;;;;;;5071778;28;20028;-80
2021/12/22 09:32:40;;;;;;;27.23;12.65;;;-1.30;99.90;;;;;;5071678;28;20418;-80
2021/12/22 09:35:06;;;;;;;25.00;11.55;;;-1.20;99.90;;;;;;5070545;28;20035;-79
2021/12/22 09:37:32;;;;;;;26.80;12.20;;;-1.20;99.90;;;;;;5076730;28;20474;-79
2021/12/22 09:39:57;;;;;;;23.02;11.93;;;-1.10;99.90;;;;;;5091894;28;20024;-79
2021/12/22 09:42:23;;;;;;;23.13;11.25;;;-0.90;99.90;;;;;;5091716;28;20036;-79
2021/12/22 09:44:50;;;;;;;24.10;11.40;;;-0.80;99.90;;;;;;5073674;28;20044;-79
2021/12/22 09:47:26;;;;;;;24.95;11.88;;;-0.70;99.90;;;;;;5091856;28;20016;-79
2021/12/22 09:50:07;;;;;;;30.65;13.85;;;-0.60;99.90;;;;;;5091854;28;20391;-79
2021/12/22 09:52:37;;;;;;;31.13;12.80;;;-0.70;99.90;;;;;;5092115;28;20031;-79
2021/12/22 09:55:05;;;;;;;25.65;12.57;;;-0.70;99.90;;;;;;5091708;28;20459;-79
2021/12/22 09:57:34;;;;;;;25.98;12.15;;;-0.60;99.90;;;;;;5082946;28;20333;-79
2021/12/22 10:00:03;;;;;;;28.02;13.57;;;-0.60;99.90;;;;;;5077200;28;20032;-80
2021/12/22 10:02:29;;;;;;;28.08;12.98;;;-0.60;99.90;;;;;;5088549;28;20032;-79
2021/12/22 10:05:00;;;;;;;24.75;12.57;;;-0.60;99.90;;;;;;5073168;28;20028;-79
2021/12/22 10:07:29;;;;;;;33.17;13.25;;;-0.60;99.90;;;;;;5081374;28;20020;-79
2021/12/22 10:10:02;;;;;;;25.83;12.50;;;-0.50;99.90;;;;;;5073573;28;20013;-80
2021/12/22 10:12:28;;;;;;;28.90;13.93;;;-0.50;99.90;;;;;;5071879;28;20020;-80
2021/12/22 10:15:03;;;;;;;26.30;12.70;;;-0.50;99.90;;;;;;5053379;28;20111;-80
2021/12/22 10:17:41;;;;;;;27.90;12.73;;;-0.40;99.90;;;;;;5087439;28;20123;-79
2021/12/22 10:20:13;;;;;;;27.33;11.60;;;-0.30;99.90;;;;;;5092921;28;20020;-80
2021/12/22 10:22:46;;;;;;;27.85;13.35;;;-0.30;99.90;;;;;;5075660;28;20031;-79
2021/12/22 10:25:19;;;;;;;24.63;12.23;;;-0.30;99.90;;;;;;5092310;28;20020;-80
2021/12/22 10:27:57;;;;;;;23.27;12.40;;;-0.20;99.90;;;;;;5073558;28;20060;-79
2021/12/22 10:30:37;;;;;;;28.80;12.93;;;-0.30;99.90;;;;;;5071074;28;20528;-79
2021/12/22 10:33:14;;;;;;;26.00;12.23;;;-0.20;99.90;;;;;;5070878;28;20388;-79
2021/12/22 10:35:42;;;;;;;27.23;11.95;;;-0.10;99.90;;;;;;5071018;28;20488;-79
2021/12/22 10:38:10;;;;;;;23.98;12.35;;;-0.10;99.90;;;;;;5081021;28;20547;-79
2021/12/22 10:40:39;;;;;;;24.27;12.60;;;-0.20;99.90;;;;;;5089797;28;20059;-79
2021/12/22 10:43:05;;;;;;;22.95;12.10;;;-0.10;99.90;;;;;;5089669;28;20032;-80
2021/12/22 10:45:34;;;;;;;26.08;12.90;;;-0.20;99.90;;;;;;5091574;28;20072;-80
2021/12/22 10:50:53;;;;;;;26.67;12.88;;;-0.10;99.90;;;;;;5095167;28;20094;-79
2021/12/22 10:53:19;;;;;;;;;;;0.00;99.90;;;;;;5095695;28;20555;-79
2021/12/22 10:55:47;;;;;;;26.10;12.65;;;0.00;99.90;;;;;;5095454;28;19998;-79
2021/12/22 10:58:29;;;;;;;23.98;11.82;;;0.00;99.90;;;;;;5095092;28;20036;-79
2021/12/22 11:01:05;;;;;;;24.10;12.98;;;0.00;99.90;;;;;;5094900;28;20417;-79
2021/12/22 11:03:46;;;;;;;27.40;13.05;;;0.00;99.90;;;;;;5094894;28;20036;-80
2021/12/22 11:06:27;;;;;;;26.52;13.20;;;0.10;99.90;;;;;;5076748;28;20029;-80
2021/12/22 11:09:13;;;;;;;26.55;12.73;;;0.10;99.90;;;;;;5094893;28;20028;-79
2021/12/22 11:11:42;;;;;;;30.08;13.10;;;0.10;99.90;;;;;;5092352;28;20027;-80
2021/12/22 11:14:12;;;;;;;27.55;13.20;;;0.10;99.90;;;;;;5082521;28;20052;-80
2021/12/22 11:17:03;;;;;;;27.65;12.35;;;0.10;99.90;;;;;;5069442;28;20030;-79
2021/12/22 11:19:33;;;;;;;28.60;13.85;;;0.10;99.90;;;;;;5082528;28;20048;-79
2021/12/22 11:22:12;;;;;;;31.65;12.75;;;0.20;99.90;;;;;;5079606;28;20027;-79
2021/12/22 11:24:48;;;;;;;28.77;13.25;;;0.30;99.90;;;;;;5079814;28;20048;-79
2021/12/22 11:27:26;;;;;;;26.98;13.88;;;0.40;99.90;;;;;;5084188;28;20012;-80
2021/12/22 11:29:57;;;;;;;33.42;13.85;;;0.40;99.90;;;;;;5077634;28;20021;-80
2021/12/22 11:32:29;;;;;;;29.95;14.50;;;0.50;99.90;;;;;;5076823;28;20404;-80
2021/12/22 11:35:00;;;;;;;30.27;13.63;;;0.60;99.90;;;;;;5073196;28;20015;-80
2021/12/22 11:37:26;;;;;;;32.00;14.13;;;0.70;1.00;;;;;;5058654;28;20025;-80
2021/12/22 11:39:53;;;;;;;27.73;13.82;;;0.70;99.90;;;;;;5081894;28;20107;-80
2021/12/22 11:42:22;;;;;;;30.15;13.73;;;0.60;99.90;;;;;;5089640;28;20468;-79
2021/12/22 11:44:55;;;;;;;26.83;13.23;;;0.60;99.90;;;;;;5094508;28;20040;-80
2021/12/22 11:47:21;;;;;;;26.35;13.05;;;0.70;99.90;;;;;;5094239;28;20093;-80
2021/12/22 11:49:57;;;;;;;28.38;13.18;;;0.70;99.90;;;;;;5094218;28;20024;-80
2021/12/22 11:52:36;;;;;;;29.67;14.23;;;0.60;99.90;;;;;;5093849;28;20027;-80
2021/12/22 11:55:08;;;;;;;27.45;14.45;;;0.60;99.90;;;;;;5094814;28;20028;-80
2021/12/22 11:57:33;;;;;;;26.10;13.82;;;0.70;1.00;;;;;;5092860;28;20031;-80
2021/12/22 12:00:19;;;;;;;30.00;14.90;;;0.70;99.90;;;;;;5075735;28;20345;-80
2021/12/22 12:02:44;;;;;;;27.27;13.50;;;0.70;1.00;;;;;;5093565;28;20060;-80
2021/12/22 12:05:22;;;;;;;30.13;13.07;;;0.70;1.00;;;;;;5093663;28;20097;-80
2021/12/22 12:07:53;;;;;;;26.92;13.00;;;0.60;99.90;;;;;;5093394;28;20043;-80
2021/12/22 12:10:32;;;;;;;;;;;0.60;99.90;;;;;;5094326;28;20028;-80
2021/12/22 12:13:04;;;;;;;27.30;13.85;;;0.60;99.90;;;;;;5093731;28;20209;-80
2021/12/22 12:21:39;;;;;;;28.92;13.02;;;0.60;99.90;;;;;;5094102;28;20032;-80
2021/12/22 12:22:22;;;;;;;27.08;14.25;;;0.40;99.90;;;;;;5079933;28;20035;-81
2021/12/22 12:24:54;;;;;;;26.88;13.88;;;0.40;99.90;;;;;;5073151;28;20515;-81
2021/12/22 12:27:43;;;;;;;27.30;13.35;;;0.40;99.90;;;;;;5074129;28;20027;-81
2021/12/22 12:30:16;;;;;;;29.85;13.02;;;0.40;99.90;;;;;;5072421;28;20496;-81
2021/12/22 12:32:50;;;;;;;28.73;13.70;;;0.40;99.90;;;;;;5085123;28;20146;-80
2021/12/22 12:35:26;;;;;;;29.58;13.00;;;0.50;99.90;;;;;;5072852;28;20031;-81
2021/12/22 12:38:19;;;;;;;27.20;12.30;;;0.50;99.90;;;;;;5081283;28;20494;-80
2021/12/22 12:40:57;;;;;;;28.45;13.57;;;0.40;99.90;;;;;;5093363;28;20091;-80
2021/12/22 12:43:44;;;;;;;28.08;13.63;;;0.40;99.90;;;;;;5091725;28;20048;-80
2021/12/22 12:46:19;;;;;;;29.42;13.70;;;0.40;99.90;;;;;;5087542;28;20024;-80
2021/12/22 12:48:49;;;;;;;27.92;13.27;;;0.40;99.90;;;;;;5080623;28;20110;-80
2021/12/22 12:51:16;;;;;;;;;;;0.50;99.90;;;;;;5073973;28;20028;-82
2021/12/22 12:53:47;;;;;;;25.13;12.70;;;0.50;99.90;;;;;;5075185;28;19915;-80
2021/12/22 12:56:14;;;;;;;22.88;11.23;;;0.50;99.90;;;;;;5075030;28;20320;-81
2021/12/22 12:59:10;;;;;;;23.27;12.50;;;0.50;99.90;;;;;;5074461;28;20031;-81
2021/12/22 13:01:50;;;;;;;24.27;13.43;;;0.60;99.90;;;;;;5063525;28;20040;-80
2021/12/22 13:04:20;;;;;;;24.73;12.65;;;0.50;99.90;;;;;;5079036;28;20028;-81
2021/12/22 13:06:47;;;;;;;24.35;13.45;;;0.40;99.90;;;;;;5092893;28;20324;-81
2021/12/22 13:09:22;;;;;;;29.65;13.50;;;0.40;99.90;;;;;;5093048;28;20028;-81
2021/12/22 13:12:01;;;;;;;27.70;13.10;;;0.30;99.90;;;;;;5092664;28;20024;-81
2021/12/22 13:17:15;;;;;;;26.73;13.38;;;0.20;99.90;;;;;;5093061;28;20077;-81
2021/12/22 13:19:47;;;;;;;24.92;13.25;;;0.20;99.90;;;;;;5074322;28;20020;-80
2021/12/22 13:22:24;;;;;;;28.88;13.45;;;0.10;99.90;;;;;;5092310;28;20095;-81